createdAt,value
2023-05-19T00:00:28.642Z,12.29
2023-05-19T00:05:31.237Z,12.26
2023-05-19T00:10:33.291Z,12.20
2023-05-19T00:15:35.412Z,12.15
2023-05-19T00:20:38.057Z,12.06
2023-05-19T00:25:39.506Z,12.02
2023-05-19T00:30:40.960Z,12.00
2023-05-19T00:35:42.414Z,11.82
2023-05-19T00:40:43.987Z,11.77
2023-05-19T00:45:46.892Z,11.78
2023-05-19T00:50:50.273Z,11.79
2023-05-19T00:55:51.840Z,11.73
2023-05-19T01:00:55.964Z,11.73
2023-05-19T01:06:01.610Z,11.74
2023-05-19T01:11:03.887Z,11.74
2023-05-19T01:16:13.113Z,11.76
2023-05-19T01:21:31.451Z,11.71
2023-05-19T01:27:00.669Z,11.73
2023-05-19T01:32:04.868Z,11.78
2023-05-19T01:37:07.976Z,11.77
2023-05-19T01:42:09.675Z,11.70
2023-05-19T01:47:11.605Z,11.68
2023-05-19T01:52:13.182Z,11.65
2023-05-19T01:57:43.230Z,11.65
2023-05-19T02:02:56.717Z,11.62
2023-05-19T02:08:06.304Z,11.60
2023-05-19T02:13:11.268Z,11.52
2023-05-19T02:18:17.946Z,11.51
2023-05-19T02:23:19.403Z,11.43
2023-05-19T02:28:20.947Z,11.35
2023-05-19T02:33:24.699Z,11.34
2023-05-19T02:38:26.807Z,11.35
2023-05-19T02:43:30.608Z,11.42
2023-05-19T02:48:32.070Z,11.47
2023-05-19T02:53:33.589Z,11.55
2023-05-19T02:58:35.136Z,11.46
2023-05-19T03:03:36.798Z,11.60
2023-05-19T03:08:40.751Z,11.61
2023-05-19T03:13:43.690Z,11.61
2023-05-19T03:18:45.948Z,11.58
2023-05-19T03:23:47.518Z,11.53
2023-05-19T03:28:49.022Z,11.62
2023-05-19T03:33:50.723Z,11.55
2023-05-19T03:38:52.227Z,11.60
2023-05-19T03:43:53.723Z,11.62
2023-05-19T03:48:55.453Z,11.68
2023-05-19T03:53:57.196Z,11.85
2023-05-19T03:58:59.429Z,11.84
2023-05-19T04:04:00.947Z,11.60
2023-05-19T04:09:04.523Z,11.69
2023-05-19T04:14:06.595Z,11.72
2023-05-19T04:19:08.185Z,11.80
2023-05-19T04:24:09.777Z,11.85
2023-05-19T04:29:13.850Z,11.85
2023-05-19T04:34:15.304Z,11.84
2023-05-19T04:39:16.813Z,11.77
2023-05-19T04:44:19.192Z,11.82
2023-05-19T04:49:20.777Z,11.82
2023-05-19T04:54:22.259Z,11.87
2023-05-19T04:59:23.718Z,11.97
2023-05-19T05:04:25.970Z,11.88
2023-05-19T05:09:27.442Z,11.85
2023-05-19T05:14:29.308Z,11.83
2023-05-19T05:19:31.481Z,11.93
2023-05-19T05:24:33.279Z,12.03
2023-05-19T05:29:34.789Z,12.08
2023-05-19T05:34:38.088Z,12.00
2023-05-19T05:39:39.543Z,12.12
2023-05-19T05:44:41.106Z,12.02
2023-05-19T05:49:43.922Z,12.08
2023-05-19T05:54:46.331Z,12.02
2023-05-19T05:59:47.828Z,12.28
2023-05-19T06:04:49.356Z,12.29
2023-05-19T06:09:50.790Z,12.31
2023-05-19T06:14:52.361Z,12.20
2023-05-19T06:19:54.347Z,12.31
2023-05-19T06:24:55.916Z,12.31
2023-05-19T06:29:57.430Z,12.54
2023-05-19T06:34:58.941Z,12.66
2023-05-19T06:40:00.474Z,12.44
2023-05-19T06:45:02.079Z,12.65
2023-05-19T06:50:03.831Z,12.47
2023-05-19T06:55:05.973Z,12.69
2023-05-19T07:00:13.349Z,12.56
2023-05-19T07:05:16.106Z,12.59
2023-05-19T07:10:17.949Z,12.59
2023-05-19T07:15:19.501Z,12.53
2023-05-19T07:20:20.991Z,12.61
2023-05-19T07:25:22.499Z,12.49
2023-05-19T07:30:24.021Z,12.46
2023-05-19T07:35:26.301Z,12.47
2023-05-19T07:40:27.749Z,12.46
2023-05-19T07:45:29.421Z,12.65
2023-05-19T07:50:31.052Z,12.75
2023-05-19T07:55:32.601Z,12.67
2023-05-19T08:00:34.313Z,12.92
2023-05-19T08:05:36.405Z,12.76
2023-05-19T08:10:37.884Z,12.94
2023-05-19T08:15:39.476Z,13.22
2023-05-19T08:20:41.029Z,13.24
2023-05-19T08:25:42.524Z,13.42
2023-05-19T08:30:43.972Z,13.64
2023-05-19T08:35:45.508Z,14.10
2023-05-19T08:40:48.406Z,13.89
2023-05-19T08:45:50.377Z,14.37
2023-05-19T08:51:17.860Z,14.05
2023-05-19T08:56:25.150Z,13.87
2023-05-19T09:01:28.903Z,14.02
2023-05-19T09:06:33.353Z,14.02
2023-05-19T09:11:37.521Z,14.15
2023-05-19T09:16:39.340Z,14.21
2023-05-19T09:21:41.395Z,14.55
2023-05-19T09:26:43.055Z,14.67
2023-05-19T09:31:52.605Z,14.73
2023-05-19T09:36:54.366Z,14.54
2023-05-19T09:41:58.505Z,14.67
2023-05-19T09:47:00.078Z,14.61
2023-05-19T09:52:05.864Z,14.63
2023-05-19T09:57:08.579Z,14.64
2023-05-19T10:02:21.299Z,14.85
2023-05-19T10:07:24.163Z,15.00
2023-05-19T10:12:26.794Z,14.98
2023-05-19T10:17:28.878Z,15.06
2023-05-19T10:22:30.513Z,14.94
2023-05-19T10:27:34.996Z,14.55
2023-05-19T10:32:39.383Z,14.75
2023-05-19T10:37:51.192Z,14.49
2023-05-19T10:43:37.166Z,14.17
2023-05-19T10:48:38.692Z,14.56
2023-05-19T10:53:46.441Z,14.38
2023-05-19T10:58:52.145Z,14.57
2023-05-19T11:03:57.644Z,14.36
2023-05-19T11:09:20.937Z,14.30
2023-05-19T11:14:27.596Z,14.11
2023-05-19T11:19:31.281Z,14.04
2023-05-19T11:24:40.623Z,14.36
2023-05-19T11:29:42.616Z,14.24
2023-05-19T11:34:45.834Z,14.31
2023-05-19T11:39:47.839Z,14.36
2023-05-19T11:44:49.580Z,14.14
2023-05-19T11:49:54.911Z,14.17
2023-05-19T11:55:01.560Z,14.15
2023-05-19T12:00:08.994Z,14.30
2023-05-19T12:05:18.704Z,14.01
2023-05-19T12:10:27.896Z,13.99
2023-05-19T12:15:29.401Z,14.12
2023-05-19T12:20:36.039Z,14.04
2023-05-19T12:25:38.485Z,13.99
2023-05-19T12:30:40.113Z,13.96
2023-05-19T12:35:42.404Z,14.01
2023-05-19T12:40:44.228Z,14.29
2023-05-19T12:45:45.908Z,14.05
2023-05-19T12:50:47.440Z,14.03
2023-05-19T12:55:52.843Z,14.17
2023-05-19T13:00:59.819Z,14.17
2023-05-19T13:06:01.447Z,14.06
2023-05-19T13:11:02.939Z,14.01
2023-05-19T13:16:04.779Z,13.95
2023-05-19T13:21:06.307Z,14.15
2023-05-19T13:26:07.839Z,14.08
2023-05-19T13:31:09.342Z,14.06
2023-05-19T13:36:10.868Z,14.23
2023-05-19T13:41:13.789Z,14.16
2023-05-19T13:46:16.010Z,14.27
2023-05-19T13:51:17.536Z,14.30
2023-05-19T13:56:19.028Z,14.28
2023-05-19T14:01:20.536Z,14.32
2023-05-19T14:06:22.135Z,14.57
2023-05-19T14:11:23.690Z,14.80
2023-05-19T14:16:26.483Z,15.05
2023-05-19T14:21:27.967Z,15.48
2023-05-19T14:26:29.558Z,15.48
2023-05-19T14:31:32.631Z,15.13
2023-05-19T14:36:35.169Z,15.02
2023-05-19T14:41:36.740Z,14.79
2023-05-19T14:46:38.258Z,14.81
2023-05-19T14:51:39.874Z,14.96
2023-05-19T14:56:41.339Z,15.19
2023-05-19T15:01:42.955Z,15.21
2023-05-19T15:06:46.349Z,15.39
2023-05-19T15:11:49.583Z,15.33
2023-05-19T15:16:51.083Z,15.19
2023-05-19T15:21:52.549Z,15.09
2023-05-19T15:26:55.376Z,15.07
2023-05-19T15:31:58.113Z,15.05
2023-05-19T15:36:59.638Z,14.96
2023-05-19T15:42:01.286Z,14.80
2023-05-19T15:47:03.161Z,14.98
2023-05-19T15:52:04.895Z,14.80
2023-05-19T15:57:06.381Z,15.01
2023-05-19T16:02:08.425Z,14.99
2023-05-19T16:07:09.922Z,14.89
2023-05-19T16:12:11.409Z,14.98
2023-05-19T16:17:13.869Z,15.02
2023-05-19T16:22:15.840Z,15.08
2023-05-19T16:27:17.345Z,15.06
2023-05-19T16:32:18.943Z,15.11
2023-05-19T16:37:20.607Z,15.01
2023-05-19T16:42:22.699Z,15.11
2023-05-19T16:47:24.177Z,15.13
2023-05-19T16:52:25.734Z,15.04
2023-05-19T16:57:27.298Z,14.89
2023-05-19T17:02:28.940Z,14.81
2023-05-19T17:07:30.493Z,14.94
2023-05-19T17:12:31.989Z,14.70
2023-05-19T17:17:33.482Z,14.66
2023-05-19T17:22:34.996Z,14.79
2023-05-19T17:27:36.488Z,14.69
2023-05-19T17:32:39.431Z,14.75
2023-05-19T17:37:41.772Z,14.59
2023-05-19T17:42:43.414Z,14.59
2023-05-19T17:47:44.945Z,14.61
2023-05-19T17:52:46.753Z,14.43
2023-05-19T17:57:49.056Z,14.40
2023-05-19T18:02:51.103Z,14.43
2023-05-19T18:07:53.937Z,14.45
2023-05-19T18:12:55.462Z,14.40
2023-05-19T18:17:57.137Z,14.40
2023-05-19T18:22:58.727Z,14.32
2023-05-19T18:28:00.352Z,14.36
2023-05-19T18:33:03.747Z,14.32
2023-05-19T18:38:05.692Z,14.40
2023-05-19T18:43:07.184Z,14.30
2023-05-19T18:48:08.910Z,14.29
2023-05-19T18:53:11.798Z,14.20
2023-05-19T18:58:13.248Z,14.32
2023-05-19T19:03:15.363Z,14.17
2023-05-19T19:08:17.403Z,14.13
2023-05-19T19:13:19.058Z,14.18
2023-05-19T19:18:20.550Z,14.13
2023-05-19T19:23:22.023Z,14.43
2023-05-19T19:28:23.938Z,14.17
2023-05-19T19:33:25.472Z,14.13
2023-05-19T19:38:26.944Z,14.20
2023-05-19T19:43:28.423Z,14.21
2023-05-19T19:48:30.464Z,14.09
2023-05-19T19:53:31.996Z,14.30
2023-05-19T19:58:33.486Z,14.17
2023-05-19T20:03:35.592Z,14.18
2023-05-19T20:08:37.504Z,14.04
2023-05-19T20:13:38.990Z,14.08
2023-05-19T20:18:40.629Z,13.98
2023-05-19T20:23:42.192Z,14.08
2023-05-19T20:28:43.754Z,14.05
2023-05-19T20:33:45.217Z,13.99
2023-05-19T20:38:47.931Z,14.01
2023-05-19T20:43:49.513Z,13.95
2023-05-19T20:48:51.209Z,13.90
2023-05-19T20:53:53.145Z,13.87
2023-05-19T20:58:54.652Z,13.94
2023-05-19T21:03:57.222Z,13.99
2023-05-19T21:08:58.723Z,14.04
2023-05-19T21:14:06.219Z,13.96
2023-05-19T21:19:07.878Z,13.87
2023-05-19T21:24:09.929Z,13.90
2023-05-19T21:29:11.413Z,13.99
2023-05-19T21:34:12.911Z,13.88
2023-05-19T21:39:14.415Z,13.82
2023-05-19T21:44:15.868Z,13.81
2023-05-19T21:49:17.346Z,13.80
2023-05-19T21:54:18.785Z,13.67
2023-05-19T21:59:23.175Z,13.74
2023-05-19T22:04:24.671Z,13.70
2023-05-19T22:09:26.655Z,13.68
2023-05-19T22:14:28.095Z,13.79
2023-05-19T22:19:29.746Z,13.66
2023-05-19T22:24:31.337Z,13.66
2023-05-19T22:29:32.953Z,13.73
2023-05-19T22:34:34.435Z,13.72
2023-05-19T22:39:36.354Z,13.56
2023-05-19T22:44:37.829Z,13.57
2023-05-19T22:49:42.837Z,13.51
2023-05-19T22:54:44.403Z,13.52
2023-05-19T22:59:45.988Z,13.58
2023-05-19T23:04:47.422Z,13.58
2023-05-19T23:09:48.967Z,13.72
2023-05-19T23:14:50.953Z,13.72
2023-05-19T23:19:52.514Z,13.86
2023-05-19T23:24:53.983Z,13.79
2023-05-19T23:29:55.790Z,13.65
2023-05-19T23:35:00.432Z,13.61
2023-05-19T23:40:01.926Z,13.62
2023-05-19T23:45:03.997Z,13.65
2023-05-19T23:50:05.772Z,13.83
2023-05-19T23:55:08.064Z,13.55
